Time,TemperatureF,DewpointF,PressureIn,WindDirection,WindDirectionDegrees,WindSpeedMPH,WindSpeedGustMPH,Humidity,HourlyPrecipIn,Conditions,Clouds,dailyrainin,SolarRadiationWatts/m^2,SoftwareType,DateUTC
2013-01-11 01:00:00,19.0,15.0,29.65,WNW,301,6.0,10.0,86,-99.99,,,-99.99,0.870000,,2013-01-11 08:00:00,
2013-01-11 01:52:00,19.0,15.0,29.65,WNW,301,6.0,10.0,86,-99.99,,,-99.99,0.870000,,2013-01-11 08:52:00,
2013-01-11 02:00:00,18.0,15.0,29.65,NW,308,7.0,8.0,90,-99.99,,,-99.99,0.520000,,2013-01-11 09:00:00,
2013-01-11 02:52:00,18.0,15.0,29.65,NW,308,7.0,8.0,90,-99.99,,,-99.99,0.520000,,2013-01-11 09:52:00,
2013-01-11 04:00:00,17.0,15.0,29.67,NNW,339,4.0,8.0,92,-99.99,,,-99.99,1.220000,,2013-01-11 11:00:00,
2013-01-11 04:53:00,17.0,15.0,29.67,NNW,339,4.0,8.0,92,-99.99,,,-99.99,1.220000,,2013-01-11 11:53:00,
2013-01-11 05:00:00,16.0,13.0,29.69,West,269,4.0,7.0,87,-99.99,,,-99.99,0.400000,,2013-01-11 12:00:00,
2013-01-11 05:53:00,16.0,13.0,29.69,West,269,4.0,7.0,87,-99.99,,,-99.99,0.400000,,2013-01-11 12:53:00,
2013-01-11 06:00:00,16.0,9.0,29.71,SSW,200,3.0,6.0,73,-99.99,,,-99.99,0.150000,,2013-01-11 13:00:00,
2013-01-11 06:53:00,16.0,9.0,29.71,SSW,200,3.0,6.0,73,-99.99,,,-99.99,0.150000,,2013-01-11 13:53:00,
2013-01-11 07:00:00,15.0,12.0,29.74,SW,232,4.0,6.0,86,-99.99,,,-99.99,0.030000,,2013-01-11 14:00:00,
2013-01-11 07:53:00,15.0,12.0,29.74,SW,232,4.0,6.0,86,-99.99,,,-99.99,0.030000,,2013-01-11 14:53:00,
2013-01-11 09:00:00,15.0,12.0,29.79,SSE,166,7.0,-999.0,87,-99.99,,,-99.99,39.520000,,2013-01-11 16:00:00,
2013-01-11 09:53:00,15.0,12.0,29.79,SSE,166,7.0,-999.0,87,-99.99,,,-99.99,39.520000,,2013-01-11 16:53:00,
2013-01-11 10:00:00,16.0,13.0,29.81,SSE,162,7.0,9.0,85,-99.99,,,-99.99,135.699997,,2013-01-11 17:00:00,
2013-01-11 10:53:00,16.0,13.0,29.81,SSE,162,7.0,9.0,85,-99.99,,,-99.99,135.699997,,2013-01-11 17:53:00,
2013-01-11 11:00:00,17.0,12.0,29.82,SSE,164,6.0,10.0,80,-99.99,,,-99.99,252.000000,,2013-01-11 18:00:00,
2013-01-11 11:53:00,17.0,12.0,29.82,SSE,164,6.0,10.0,80,-99.99,,,-99.99,252.000000,,2013-01-11 18:53:00,
2013-01-11 12:00:00,18.0,13.0,29.81,SSE,168,6.0,9.0,80,-99.99,,,-99.99,384.899994,,2013-01-11 19:00:00,
2013-01-11 12:53:00,18.0,13.0,29.81,SSE,168,6.0,9.0,80,-99.99,,,-99.99,384.899994,,2013-01-11 19:53:00,
2013-01-11 13:00:00,19.0,12.0,29.82,South,190,6.0,10.0,74,-99.99,,,-99.99,385.299988,,2013-01-11 20:00:00,
2013-01-11 13:53:00,19.0,12.0,29.82,South,190,6.0,10.0,74,-99.99,,,-99.99,385.299988,,2013-01-11 20:53:00,
2013-01-11 14:00:00,20.0,10.0,29.83,SW,228,7.0,-999.0,65,-99.99,,,-99.99,428.700012,,2013-01-11 21:00:00,
2013-01-11 14:53:00,20.0,10.0,29.83,SW,228,7.0,-999.0,65,-99.99,,,-99.99,428.700012,,2013-01-11 21:53:00,
2013-01-11 15:00:00,21.0,10.0,29.84,SSW,195,6.0,10.0,63,-99.99,,,-99.99,471.899994,,2013-01-11 22:00:00,
2013-01-11 15:53:00,21.0,10.0,29.84,SSW,195,6.0,10.0,63,-99.99,,,-99.99,471.899994,,2013-01-11 22:53:00,
2013-01-11 16:00:00,20.0,8.0,29.86,SSE,164,5.0,10.0,60,-99.99,,,-99.99,349.700012,,2013-01-11 23:00:00,
2013-01-11 16:53:00,20.0,8.0,29.86,SSE,164,5.0,10.0,60,-99.99,,,-99.99,349.700012,,2013-01-11 23:53:00,
2013-01-11 17:00:00,17.0,8.0,29.87,South,174,5.0,8.0,67,-99.99,,,-99.99,118.599998,,2013-01-12 00:00:00,
2013-01-11 17:53:00,17.0,8.0,29.87,South,174,5.0,8.0,67,-99.99,,,-99.99,118.599998,,2013-01-12 00:53:00,
2013-01-11 18:00:00,16.0,7.0,29.89,SSE,164,5.0,8.0,66,-99.99,,,-99.99,8.730000,,2013-01-12 01:00:00,
2013-01-11 18:52:00,16.0,7.0,29.89,SSE,164,5.0,8.0,66,-99.99,,,-99.99,8.730000,,2013-01-12 01:52:00,
2013-01-11 19:00:00,14.0,8.0,29.90,SE,134,4.0,6.0,77,-99.99,,,-99.99,0.000000,,2013-01-12 02:00:00,
2013-01-11 19:53:00,14.0,8.0,29.90,SE,134,4.0,6.0,77,-99.99,,,-99.99,0.000000,,2013-01-12 02:53:00,
2013-01-11 20:00:00,14.0,10.0,29.91,SSE,156,3.0,6.0,81,-99.99,,,-99.99,0.000000,,2013-01-12 03:00:00,
2013-01-11 20:53:00,14.0,10.0,29.91,SSE,156,3.0,6.0,81,-99.99,,,-99.99,0.000000,,2013-01-12 03:53:00,
2013-01-11 21:00:00,14.0,10.0,29.91,SE,132,4.0,5.0,87,-99.99,,,-99.99,0.040000,,2013-01-12 04:00:00,
2013-01-11 21:52:00,14.0,10.0,29.91,SE,132,4.0,5.0,87,-99.99,,,-99.99,0.040000,,2013-01-12 04:52:00,
2013-01-11 22:00:00,14.0,10.0,29.91,SSE,151,4.0,6.0,85,-99.99,,,-99.99,0.080000,,2013-01-12 05:00:00,
2013-01-11 22:52:00,14.0,10.0,29.91,SSE,151,4.0,6.0,85,-99.99,,,-99.99,0.080000,,2013-01-12 05:52:00,
2013-01-11 23:00:00,12.0,9.0,29.92,SSE,164,5.0,6.0,87,-99.99,,,-99.99,0.060000,,2013-01-12 06:00:00,
2013-01-11 23:52:00,12.0,9.0,29.92,SSE,164,5.0,6.0,87,-99.99,,,-99.99,0.060000,,2013-01-12 06:52:00,